Pacific Galaxy — 3FMN2 — position and weather

sailwx.info

Track history (hours):
 
Tides and Currents Weather Stations Pressure Air Temp Water Temp Dewpoint Dewpoint Depression Visibility Wind Speed Wind Dir Waves Ship Positions

Pacific Galaxy

Last reported at 2014-Jul-25 08:32 UTC. Time now 2014-Jul-31 07:26 UTC.
Position N 34°49' E 139°17'.

Length 246 m; draft 8 m.

Type: Ship. MMSI: 356075000.

Date/timePositionNaut miles runAvg speedWind from/ knotsBaromVisibWave heightAir tempDewpointWater temp
2014-Jul-25 08:32N 34°49' E 139°17'10 9.8
2014-Jul-25 07:31N 34°55' E 139°26'9 9.8
2014-Jul-25 06:33N 35°01' E 139°35'1111.2
2014-Jul-25 05:33N 35°09' E 139°45'1110.6
2014-Jul-25 04:33N 35°20' E 139°43'1211.8
2014-Jul-25 03:33N 35°29' E 139°51'4 4.4
2014-Jul-25 02:33N 35°31' E 139°56'0 0.0
2014-Jul-25 01:33N 35°31' E 139°56'0 0.0
2014-Jul-25 00:26N 35°31' E 139°56'0 0.0
2014-Jul-24 23:32N 35°31' E 139°56'0 0.0
2014-Jul-24 22:32N 35°31' E 139°56'0 0.0
2014-Jul-24 21:32N 35°31' E 139°56'0 0.0
2014-Jul-24 20:32N 35°31' E 139°56'0 0.0
2014-Jul-24 19:32N 35°31' E 139°56'0 0.0
2014-Jul-24 18:32N 35°31' E 139°56'0 0.0
2014-Jul-24 17:32N 35°31' E 139°56'0 0.0
2014-Jul-24 16:26N 35°31' E 139°56'0 0.0
2014-Jul-24 15:32N 35°31' E 139°56'0 0.0
2014-Jul-24 14:29N 35°31' E 139°56'0 0.0
2014-Jul-24 13:32N 35°31' E 139°56'0 0.0
2014-Jul-24 12:26N 35°31' E 139°56'0 0.0
2014-Jul-24 11:32N 35°31' E 139°56'0 0.0
2014-Jul-24 10:29N 35°31' E 139°56'0 0.0
2014-Jul-24 09:32N 35°31' E 139°56'0 0.0
2014-Jul-24 08:29N 35°31' E 139°56'0 0.0
2014-Jul-24 07:32N 35°31' E 139°56'0 0.0
2014-Jul-24 06:29N 35°31' E 139°56'0 0.0
2014-Jul-24 05:29N 35°31' E 139°56'0 0.0
2014-Jul-24 04:29N 35°31' E 139°56'0 0.0
2014-Jul-24 03:32N 35°31' E 139°56'0 0.5
2014-Jul-24 02:33N 35°30' E 139°56'5 4.9
2014-Jul-24 01:33N 35°28' E 139°51'1010.3
2014-Jul-24 00:33N 35°19' E 139°44'10 9.7
2014-Jul-23 23:33N 35°09' E 139°47'7 7.3
2014-Jul-23 22:33N 35°03' E 139°43'8 8.5
2014-Jul-23 21:33N 34°54' E 139°42'9 8.7
2014-Jul-23 20:33N 34°49' E 139°50'9 9.3
2014-Jul-23 19:33N 34°43' E 139°59'3 3.1
2014-Jul-23 18:33N 34°40' E 140°01'2 2.1
2014-Jul-23 17:33N 34°42' E 140°03'8 7.6
2014-Jul-23 16:32N 34°45' E 140°11'8 7.6
2014-Jul-23 15:30N 34°50' E 140°19'7 7.1
2014-Jul-23 14:31N 34°54' E 140°26'14 7.3
2014-Jul-23 12:33N 35°05' E 140°37'8 7.7
2014-Jul-23 11:27N 35°12' E 140°44'8 7.8
2014-Jul-23 10:27N 35°18' E 140°50'12 9.6
2014-Jul-23 09:10N 35°27' E 140°59'6 9.9
2014-Jul-23 08:33N 35°32' E 141°04'1010.1
2014-Jul-23 07:32N 35°41' E 141°10'1010.6
2014-Jul-23 06:33N 35°51' E 141°13'1110.7
2014-Jul-23 05:31N 36°02' E 141°16'1010.5
2014-Jul-23 04:33N 36°12' E 141°19'3410.3
2014-Jul-23 01:14N 36°45' E 141°29'1110.6
2014-Jul-23 00:11N 36°56' E 141°32'  
Track history (hours):
 
Tides and Currents Weather Stations Pressure Air Temp Water Temp Dewpoint Dewpoint Depression Visibility Wind Speed Wind Dir Waves Ship Positions

Pacific Galaxy

Last reported at 2014-Jul-25 08:32 UTC. Time now 2014-Jul-31 07:26 UTC.
Position N 34°49' E 139°17'.

Length 246 m; draft 8 m.

Type: Ship. MMSI: 356075000.

Date/timePositionNaut miles runAvg speedWind from/ knotsBaromVisibWave heightAir tempDewpointWater temp
2014-Jul-25 08:32N 34°49' E 139°17'10 9.8
2014-Jul-25 07:31N 34°55' E 139°26'9 9.8
2014-Jul-25 06:33N 35°01' E 139°35'1111.2
2014-Jul-25 05:33N 35°09' E 139°45'1110.6
2014-Jul-25 04:33N 35°20' E 139°43'1211.8
2014-Jul-25 03:33N 35°29' E 139°51'4 4.4
2014-Jul-25 02:33N 35°31' E 139°56'0 0.0
2014-Jul-25 01:33N 35°31' E 139°56'0 0.0
2014-Jul-25 00:26N 35°31' E 139°56'0 0.0
2014-Jul-24 23:32N 35°31' E 139°56'0 0.0
2014-Jul-24 22:32N 35°31' E 139°56'0 0.0
2014-Jul-24 21:32N 35°31' E 139°56'0 0.0
2014-Jul-24 20:32N 35°31' E 139°56'0 0.0
2014-Jul-24 19:32N 35°31' E 139°56'0 0.0
2014-Jul-24 18:32N 35°31' E 139°56'0 0.0
2014-Jul-24 17:32N 35°31' E 139°56'0 0.0
2014-Jul-24 16:26N 35°31' E 139°56'0 0.0
2014-Jul-24 15:32N 35°31' E 139°56'0 0.0
2014-Jul-24 14:29N 35°31' E 139°56'0 0.0
2014-Jul-24 13:32N 35°31' E 139°56'0 0.0
2014-Jul-24 12:26N 35°31' E 139°56'0 0.0
2014-Jul-24 11:32N 35°31' E 139°56'0 0.0
2014-Jul-24 10:29N 35°31' E 139°56'0 0.0
2014-Jul-24 09:32N 35°31' E 139°56'0 0.0
2014-Jul-24 08:29N 35°31' E 139°56'0 0.0
2014-Jul-24 07:32N 35°31' E 139°56'0 0.0
2014-Jul-24 06:29N 35°31' E 139°56'0 0.0
2014-Jul-24 05:29N 35°31' E 139°56'0 0.0
2014-Jul-24 04:29N 35°31' E 139°56'0 0.0
2014-Jul-24 03:32N 35°31' E 139°56'0 0.5
2014-Jul-24 02:33N 35°30' E 139°56'5 4.9
2014-Jul-24 01:33N 35°28' E 139°51'1010.3
2014-Jul-24 00:33N 35°19' E 139°44'10 9.7
2014-Jul-23 23:33N 35°09' E 139°47'7 7.3
2014-Jul-23 22:33N 35°03' E 139°43'8 8.5
2014-Jul-23 21:33N 34°54' E 139°42'9 8.7
2014-Jul-23 20:33N 34°49' E 139°50'9 9.3
2014-Jul-23 19:33N 34°43' E 139°59'3 3.1
2014-Jul-23 18:33N 34°40' E 140°01'2 2.1
2014-Jul-23 17:33N 34°42' E 140°03'8 7.6
2014-Jul-23 16:32N 34°45' E 140°11'8 7.6
2014-Jul-23 15:30N 34°50' E 140°19'7 7.1
2014-Jul-23 14:31N 34°54' E 140°26'14 7.3
2014-Jul-23 12:33N 35°05' E 140°37'8 7.7
2014-Jul-23 11:27N 35°12' E 140°44'8 7.8
2014-Jul-23 10:27N 35°18' E 140°50'12 9.6
2014-Jul-23 09:10N 35°27' E 140°59'6 9.9
2014-Jul-23 08:33N 35°32' E 141°04'1010.1
2014-Jul-23 07:32N 35°41' E 141°10'1010.6
2014-Jul-23 06:33N 35°51' E 141°13'1110.7
2014-Jul-23 05:31N 36°02' E 141°16'1010.5
2014-Jul-23 04:33N 36°12' E 141°19'3410.3
2014-Jul-23 01:14N 36°45' E 141°29'1110.6
2014-Jul-23 00:11N 36°56' E 141°32'  

Dump ship's entire track history